x

South Hecate Strait (46185) Wave Buoy

2:00pm - Fri 29th Jul 2016 All times are PDT. -7 hours from GMT.

  • Sig Wave height 4.9ft
  • Peak Period 6s
  • Wind
    25mph, 29mph gusts
  • Sea Temp 62°f
  • Air Temp 58°f
  • Sea Pressure 1022.8mb
  • South Hecate Strait
  • South Hecate Strait

More Historic Weather Station data

Upgrade to MSW Pro to gain access to the past 30 days of data for over 8000 Wavebouys and Weather Stations around the globe.

Join Pro

Comparision Forecast

View Surf forecast
   
Fri 07/29 2:00pm 5ft 6s 25 29 mph 1022.8mb 62f 58f
1:00pm 4.5ft 5s 25 27 mph 1022.9mb 62f 58f
12:00pm 4.5ft 5s 25 29 mph 1023mb 62f 58f
11:00am 4ft 5s 22 27 mph 1023.1mb 62f 58f
10:00am 4ft 6s 20 25 mph 1023mb 63f 58f
9:00am 4ft 6s 20 25 mph 1022.9mb 63f 58f
8:00am 4.5ft 5s 22 27 mph 1023mb 62f 58f
7:00am 5ft 6s 18 20 mph 1022.9mb 62f 59f
6:00am 5ft 6s 22 27 mph 1022.8mb 62f 58f
5:00am 5ft 6s 20 25 mph 1023mb 62f 59f
4:00am 5ft 5s 25 27 mph 1023.1mb 63f 60f
3:00am 4ft 5s 22 29 mph 1022.9mb 63f 60f
2:00am 2.5ft 4s 22 27 mph 1022.8mb 63f 61f
1:00am 2.5ft 4s 20 25 mph 1022.7mb 63f 61f
12:00am 2.5ft 4s 13 18 mph 1022.9mb 64f 61f
Thu 07/28 11:00pm 2ft 8s 16 18 mph 1022.8mb 65f 62f
10:00pm 2ft 7s 13 16 mph 1022.8mb 65f 63f
9:00pm 2ft 8s 13 18 mph 1022.8mb 65f 62f
8:00pm 2ft 7s 13 16 mph 1022.9mb 65f 63f
7:00pm 2ft 7s 9 11 mph 1023.3mb 66f 64f
6:00pm 2ft 8s 7 9 mph 1023.8mb 67f 64f
5:00pm 1.6ft 12s 7
mph
1024.2mb 67f 64f
4:00pm 1.6ft 8s 4 7 mph 1024.6mb 66f 64f
3:00pm 1.6ft 14s 4 7 mph 1024.8mb 67f 63f
2:00pm 1.6ft 7s 4
mph
1024.9mb 66f 63f
1:00pm 1.6ft 13s 4 7 mph 1025.2mb 66f 62f
12:00pm 1.6ft 14s 2 4 mph 1025.1mb 65f 61f
11:00am 1.6ft 14s 2 4 mph 1024.9mb 65f 60f
10:00am 1.6ft 8s 2 4 mph 1024.8mb 64f 60f
9:00am 2ft 8s 7 9 mph 1024.7mb 64f 59f
8:00am 2ft 8s 9
mph
1024.6mb 64f 60f
7:00am 2ft 14s 7
mph
1024.5mb 64f 59f
6:00am 2ft 12s 7 9 mph 1024.5mb 64f 60f
5:00am 1.6ft 14s 7 9 mph 1024.5mb 64f 61f
4:00am 1.6ft 14s 7
mph
1024.6mb 64f 61f
3:00am 1.6ft 14s 7
mph
1024.7mb 64f 61f
2:00am 1.6ft 14s 4 7 mph 1024.6mb 64f 62f
1:00am 1.3ft 14s 4 7 mph 1024.7mb 64f 62f
12:00am 1.3ft 14s 4
mph
1024.7mb 64f 62f
Wed 07/27 11:00pm 1.3ft 14s 7
mph
1024.7mb 64f 62f
10:00pm 1.6ft 14s 4 7 mph 1024.6mb 64f 62f
9:00pm 1.3ft 14s 9 11 mph 1024.3mb 64f 62f
8:00pm 1.6ft 15s 7
mph
1024mb 64f 62f
7:00pm 1.6ft 14s 4 7 mph 1024.2mb 65f 62f
6:00pm 1.6ft 13s 4 7 mph 1024.4mb 65f 62f
5:00pm 1.6ft 15s 2 4 mph 1024.6mb 65f 62f
4:00pm 1.6ft 14s 7
mph
1024.9mb 65f 62f
3:00pm 1.6ft 14s 7 9 mph 1025.1mb 64f 61f
2:00pm 1.6ft 14s 7 9 mph 1025.2mb 65f 59f
1:00pm 1.3ft 14s 2 4 mph 1024.9mb 65f 60f
12:00pm 1.3ft 14s 2 4 mph 1024.7mb 64f 60f
11:00am 1.3ft 15s 4 9 mph 1024.5mb 63f 59f
10:00am 1.6ft 14s 4 7 mph 1024.5mb 64f 58f
9:00am 1.6ft 14s 4
mph
1024.3mb 63f 58f
8:00am 2ft 14s 2 4 mph 1024.1mb 63f 58f
7:00am 2ft 14s  -  2 mph 1023.8mb 63f 58f
6:00am 2ft 14s 2
mph
1023.9mb 63f 58f
5:00am 1.6ft 14s 4 7 mph 1023.8mb 63f 58f
4:00am 1.6ft 15s 2 4 mph 1023.7mb 63f 58f
3:00am 1.3ft 15s 4 7 mph 1023.8mb 63f 59f
2:00am 1.6ft 14s 4 7 mph 1023.9mb 63f 58f
1:00am 1.6ft 14s 7 9 mph 1023.9mb 63f 58f
12:00am 1.6ft 14s 9
mph
1024mb 63f 60f
Tue 07/26 11:00pm 1.6ft 15s 4 7 mph 1024mb 63f 60f
10:00pm 1.6ft 15s 2 4 mph 1023.9mb 63f 60f
9:00pm 1.6ft 14s 7
mph
1023.8mb 63f 59f
8:00pm 2ft 15s 9
mph
1023.8mb 63f 59f
7:00pm 2ft 15s 7 9 mph 1023.9mb 62f 59f
6:00pm 1.6ft 16s 9 11 mph 1024.1mb 63f 59f
5:00pm 1.6ft 15s 9
mph
1024.2mb 64f 60f
4:00pm 1.6ft 15s 9 11 mph 1024.4mb 64f 59f
3:00pm 1.6ft 15s 11 13 mph 1024.6mb 64f 58f
2:00pm 1.6ft 14s 9 11 mph 1024.5mb 64f 59f
1:00pm 1.6ft 14s 9
mph
1024.3mb 64f 60f
12:00pm 1.6ft 14s 7 9 mph 1024mb 64f 60f
11:00am 1.6ft 14s 7
mph
1023.8mb 63f 60f
10:00am 1.6ft 14s 7 9 mph 1023.4mb 63f 60f
9:00am 2ft 14s 7
mph
1023.2mb 63f 60f
8:00am 1.6ft 15s 4 7 mph 1022.8mb 62f 60f
7:00am 2ft 15s 7 9 mph 1022.4mb 62f 60f
6:00am 1.6ft 14s 9 11 mph 1022.1mb 62f 60f
5:00am 2ft 15s 9
mph
1021.9mb 62f 60f
4:00am 2ft 14s 7 9 mph 1021.9mb 62f 60f
3:00am 2ft 15s 7 9 mph 1021.8mb 63f 60f
2:00am 2ft 16s 7 9 mph 1021.6mb 63f 60f
1:00am 2ft 15s 11 13 mph 1021.6mb 63f 60f
12:00am 2ft 14s 11 13 mph 1021.5mb 64f 61f
Mon 07/25 11:00pm 1.6ft 15s 7 9 mph 1021.6mb 63f 60f